Accueil
METAR-TAF:

METAR-TAF

Aéroports :

Aéroport international de Cambridge

Cambridge, Angleterre

latitude: 52-12N, longitude: 000-11E, altitude: 15 m

Observation

Le bulletin a été fait il y a 12 heures et 23 minutes, à 15:50 UTC
Vent 8 kt de nord-ouest, variant entre ouest/nord-ouest et nord/nord-est
Température 22°C
Humidité 41%
Pression 1024 hPa
Visibilité 10 km ou plus
pas de nuages en-dessous de 1500 mètres et pas de cumulonimbus.

METAR: EGSC 051550Z 32008KT 290V030 CAVOK 22/08 Q1024

Heure: 05:13 (04:13 UTC)

Prévision

Le bulletin a été fait il y a 14 heures et 15 minutes, à 13:58 UTC
Prévision valable du 05 à 15 UTC au 05 à 17 UTC
Vent 9 kt de nord-ouest
Visibilité 10 km ou plus
Nuages épars à une hauteur de 4500 ft

TAF: EGSC 051358Z 0515/0517 32009KT 9999 SCT045

Observations et prévisions météorologiques de plus de 4000 aéroports (messages METAR et TAF).

Les stations disponibles sont représentées par des disques jaunes et rouges sur la carte.

Passer la souris dessus pour voir le nom de la station.

Cliquer dessus pour voir les observations et prévisions météorologiques.

Pour changer de carte: cliquez sur les boutons verts avec une croix noire pour zoomer, sur le bouton vert avec un tiret pour effectuer un zoom arrière, ou sur les flèches vertes pour les cartes adjacentes.


METAR-TAF: